createdAt,value
2018-02-01T00:00:33.732Z,0.00
2018-02-01T00:01:33.692Z,0.00
2018-02-01T00:02:33.645Z,0.00
2018-02-01T00:03:33.609Z,0.00
2018-02-01T00:04:33.566Z,0.00
2018-02-01T00:05:33.529Z,0.00
2018-02-01T00:06:33.497Z,0.00
2018-02-01T00:07:33.447Z,0.00
2018-02-01T00:08:33.416Z,0.00
2018-02-01T00:09:33.379Z,0.00
2018-02-01T00:10:33.338Z,0.00
2018-02-01T00:11:33.289Z,0.00
2018-02-01T00:12:33.247Z,0.00
2018-02-01T00:13:33.205Z,0.00
2018-02-01T00:14:33.166Z,0.00
2018-02-01T00:15:33.131Z,0.00
2018-02-01T00:16:33.093Z,0.00
2018-02-01T00:17:33.043Z,0.00
2018-02-01T00:18:33.001Z,0.00
2018-02-01T00:19:32.965Z,0.00
2018-02-01T00:20:32.920Z,0.00
2018-02-01T00:21:32.884Z,0.00
2018-02-01T00:22:32.853Z,0.00
2018-02-01T00:23:32.804Z,0.00
2018-02-01T00:24:32.759Z,0.00
2018-02-01T00:25:32.729Z,0.00
2018-02-01T00:26:32.678Z,0.00
2018-02-01T00:27:32.654Z,0.00
2018-02-01T00:28:32.597Z,0.00
2018-02-01T00:29:32.565Z,0.00
2018-02-01T00:30:32.532Z,0.00
2018-02-01T00:31:32.478Z,0.00
2018-02-01T00:32:32.441Z,0.00
2018-02-01T00:33:32.406Z,0.00
2018-02-01T00:34:32.396Z,0.00
2018-02-01T00:35:32.332Z,0.00
2018-02-01T00:36:32.288Z,0.00
2018-02-01T00:37:32.234Z,0.00
2018-02-01T00:38:32.197Z,0.00
2018-02-01T00:39:32.150Z,0.00
2018-02-01T00:40:32.108Z,0.00
2018-02-01T00:41:32.102Z,0.00
2018-02-01T00:42:32.117Z,0.00
2018-02-01T00:43:32.009Z,0.00
2018-02-01T00:44:31.950Z,0.00
2018-02-01T00:45:31.918Z,0.00
2018-02-01T00:46:31.873Z,0.00
2018-02-01T00:47:31.829Z,0.00
2018-02-01T00:48:31.800Z,0.00
2018-02-01T00:49:31.760Z,0.00
2018-02-01T00:50:31.714Z,0.00
2018-02-01T00:51:31.664Z,0.00
2018-02-01T00:52:31.624Z,0.00
2018-02-01T00:53:31.594Z,0.00
2018-02-01T00:54:31.547Z,0.00
2018-02-01T00:55:31.502Z,0.00
2018-02-01T00:56:31.462Z,0.00
2018-02-01T00:57:31.427Z,0.00
2018-02-01T00:58:31.385Z,0.00
2018-02-01T00:59:31.339Z,0.00
2018-02-01T01:00:31.321Z,0.00
2018-02-01T01:01:31.262Z,0.00
2018-02-01T01:02:31.221Z,0.00
2018-02-01T01:03:31.178Z,0.00
2018-02-01T01:04:31.138Z,0.00
2018-02-01T01:05:31.099Z,0.00
2018-02-01T01:06:31.055Z,0.00
2018-02-01T01:07:31.020Z,0.00
2018-02-01T01:08:30.977Z,0.00
2018-02-01T01:09:30.937Z,0.00
2018-02-01T01:10:30.897Z,0.00
2018-02-01T01:11:30.856Z,0.00
2018-02-01T01:12:30.817Z,0.00
2018-02-01T01:13:30.782Z,0.00
2018-02-01T01:14:30.734Z,0.00
2018-02-01T01:15:30.700Z,0.00
2018-02-01T01:16:30.651Z,0.00
2018-02-01T01:17:30.612Z,0.00
2018-02-01T01:18:30.571Z,0.00
2018-02-01T01:19:30.531Z,0.00
2018-02-01T01:20:30.495Z,0.00
2018-02-01T01:21:30.450Z,0.00
2018-02-01T01:22:30.406Z,0.00
2018-02-01T01:23:30.367Z,0.00
2018-02-01T01:24:30.326Z,0.00
2018-02-01T01:25:30.286Z,0.00
2018-02-01T01:26:30.250Z,0.00
2018-02-01T01:27:30.208Z,0.00
2018-02-01T01:28:30.163Z,0.00
2018-02-01T01:29:30.125Z,0.00
2018-02-01T01:30:30.082Z,0.00
2018-02-01T01:31:30.041Z,0.00
2018-02-01T01:32:29.998Z,0.00
2018-02-01T01:33:29.967Z,0.00
2018-02-01T01:34:29.922Z,0.00
2018-02-01T01:35:29.882Z,0.00
2018-02-01T01:36:29.840Z,0.00
2018-02-01T01:37:29.798Z,0.00
2018-02-01T01:38:29.767Z,0.00
2018-02-01T01:39:29.715Z,0.00
2018-02-01T01:40:29.686Z,0.00
2018-02-01T01:41:29.640Z,0.00
2018-02-01T01:42:29.596Z,0.00
2018-02-01T01:43:29.560Z,0.00
2018-02-01T01:44:29.516Z,0.00
2018-02-01T01:45:29.479Z,0.00
2018-02-01T01:46:29.436Z,0.00
2018-02-01T01:47:29.399Z,0.00
2018-02-01T01:48:29.353Z,0.00
2018-02-01T01:49:29.314Z,0.00
2018-02-01T01:50:29.274Z,0.00
2018-02-01T01:51:29.229Z,0.00
2018-02-01T01:52:29.196Z,0.00
2018-02-01T01:53:29.147Z,0.00
2018-02-01T01:54:29.104Z,0.00
2018-02-01T01:55:29.062Z,0.00
2018-02-01T01:56:29.023Z,0.00
2018-02-01T01:57:28.986Z,0.00
2018-02-01T01:58:28.941Z,0.00
2018-02-01T01:59:28.905Z,0.00
2018-02-01T02:00:28.866Z,0.00
2018-02-01T02:01:28.835Z,0.00
2018-02-01T02:02:28.780Z,0.00
2018-02-01T02:03:28.755Z,0.00
2018-02-01T02:04:28.702Z,0.00
2018-02-01T02:05:28.659Z,0.00
2018-02-01T02:06:28.621Z,0.00
2018-02-01T02:07:28.576Z,0.00
2018-02-01T02:08:28.536Z,0.00
2018-02-01T02:09:28.494Z,0.00
2018-02-01T02:10:28.459Z,0.00
2018-02-01T02:11:28.411Z,0.00
2018-02-01T02:12:28.374Z,0.00
2018-02-01T02:13:28.336Z,0.00
2018-02-01T02:14:28.289Z,0.00
2018-02-01T02:15:28.252Z,0.00
2018-02-01T02:16:28.210Z,0.00
2018-02-01T02:17:28.170Z,0.00
2018-02-01T02:18:28.132Z,0.00
2018-02-01T02:19:28.084Z,0.00
2018-02-01T02:20:28.046Z,0.00
2018-02-01T02:21:28.011Z,0.00
2018-02-01T02:22:27.965Z,0.00
2018-02-01T02:23:27.923Z,0.00
2018-02-01T02:24:27.881Z,0.00
2018-02-01T02:25:27.843Z,0.00
2018-02-01T02:26:27.804Z,0.00
2018-02-01T02:27:27.758Z,0.00
2018-02-01T02:28:27.720Z,0.00
2018-02-01T02:29:27.683Z,0.00
2018-02-01T02:30:27.634Z,0.00
2018-02-01T02:31:27.599Z,0.00
2018-02-01T02:32:27.558Z,0.00
2018-02-01T02:33:27.520Z,0.00
2018-02-01T02:34:27.479Z,0.00
2018-02-01T02:35:27.439Z,0.00
2018-02-01T02:36:27.390Z,0.00
2018-02-01T02:37:27.365Z,0.00
2018-02-01T02:38:27.316Z,0.00
2018-02-01T02:39:27.281Z,0.00
2018-02-01T02:40:27.230Z,0.00
2018-02-01T02:41:27.195Z,0.00
2018-02-01T02:42:27.152Z,0.00
2018-02-01T02:43:27.106Z,0.00
2018-02-01T02:44:27.069Z,0.00
2018-02-01T02:45:27.022Z,0.00
2018-02-01T02:46:26.983Z,0.00
2018-02-01T02:47:26.970Z,0.00
2018-02-01T02:48:26.900Z,0.00
2018-02-01T02:49:26.863Z,0.00
2018-02-01T02:50:26.828Z,0.00
2018-02-01T02:51:26.788Z,0.00
2018-02-01T02:52:26.740Z,0.00
2018-02-01T02:53:26.701Z,0.00
2018-02-01T02:54:26.653Z,0.00
2018-02-01T02:55:26.612Z,0.00
2018-02-01T02:56:26.581Z,0.00
2018-02-01T02:57:26.542Z,0.00
2018-02-01T02:58:26.497Z,0.00
2018-02-01T02:59:26.457Z,0.00
2018-02-01T03:00:26.413Z,0.00
2018-02-01T03:01:26.379Z,0.00
2018-02-01T03:02:26.332Z,0.00
2018-02-01T03:03:26.291Z,0.00
2018-02-01T03:04:26.265Z,0.00
2018-02-01T03:05:26.210Z,0.00
2018-02-01T03:06:26.170Z,0.00
2018-02-01T03:07:26.132Z,0.00
2018-02-01T03:08:26.084Z,0.00
2018-02-01T03:09:26.040Z,0.00
2018-02-01T03:10:26.013Z,0.00
2018-02-01T03:11:25.975Z,0.00
2018-02-01T03:12:25.928Z,0.00
2018-02-01T03:13:25.887Z,0.00
2018-02-01T03:14:25.842Z,0.00
2018-02-01T03:15:25.799Z,0.00
2018-02-01T03:16:25.755Z,0.00
2018-02-01T03:17:25.725Z,0.00
2018-02-01T03:18:25.685Z,0.00
2018-02-01T03:19:25.642Z,0.00
2018-02-01T03:20:25.597Z,0.00
2018-02-01T03:21:25.557Z,0.00
2018-02-01T03:22:25.507Z,0.00
2018-02-01T03:23:25.469Z,0.00
2018-02-01T03:24:25.427Z,0.00
2018-02-01T03:25:25.390Z,0.00
2018-02-01T03:26:25.398Z,0.00
2018-02-01T03:27:25.305Z,0.00
2018-02-01T03:28:25.264Z,0.00
2018-02-01T03:29:25.227Z,0.00
2018-02-01T03:30:25.184Z,0.00
2018-02-01T03:31:25.141Z,0.00
2018-02-01T03:32:25.102Z,0.00
2018-02-01T03:33:25.067Z,0.00
2018-02-01T03:34:25.021Z,0.00
2018-02-01T03:35:24.977Z,0.00
2018-02-01T03:36:24.936Z,0.00
2018-02-01T03:37:24.897Z,0.00
2018-02-01T03:38:24.864Z,0.00
2018-02-01T03:39:24.815Z,0.00
2018-02-01T03:40:24.772Z,0.00
2018-02-01T03:41:24.729Z,0.00
2018-02-01T03:42:24.690Z,0.00
2018-02-01T03:43:24.648Z,0.00
2018-02-01T03:44:24.607Z,0.00
2018-02-01T03:45:24.572Z,0.00
2018-02-01T03:46:24.528Z,0.00
2018-02-01T03:47:24.489Z,0.00
2018-02-01T03:48:24.447Z,0.00
2018-02-01T03:49:24.412Z,0.00
2018-02-01T03:50:24.363Z,0.00
2018-02-01T03:51:24.324Z,0.00
2018-02-01T03:52:24.287Z,0.00
2018-02-01T03:53:24.249Z,0.00
2018-02-01T03:54:24.202Z,0.00
2018-02-01T03:55:24.159Z,0.00
2018-02-01T03:56:24.121Z,0.00
2018-02-01T03:57:24.082Z,0.00
2018-02-01T03:58:24.038Z,0.00
2018-02-01T03:59:23.991Z,0.00
2018-02-01T04:00:23.973Z,0.00
2018-02-01T04:01:23.915Z,0.00
2018-02-01T04:02:23.886Z,0.00
2018-02-01T04:03:23.832Z,0.00
2018-02-01T04:04:23.801Z,0.00
2018-02-01T04:05:23.747Z,0.00
2018-02-01T04:06:23.706Z,0.00
2018-02-01T04:07:23.679Z,0.00
2018-02-01T04:08:23.627Z,0.00
2018-02-01T04:09:23.597Z,0.00
2018-02-01T04:10:23.544Z,0.00
2018-02-01T04:11:23.500Z,0.00
2018-02-01T04:12:23.468Z,0.00
2018-02-01T04:13:23.426Z,0.00
2018-02-01T04:14:23.381Z,0.00
2018-02-01T04:15:23.338Z,0.00
2018-02-01T04:16:23.296Z,0.00
2018-02-01T04:17:23.256Z,0.00
2018-02-01T04:18:23.213Z,0.00
2018-02-01T04:19:23.176Z,0.00
2018-02-01T04:20:23.135Z,0.00
2018-02-01T04:21:23.090Z,0.00
2018-02-01T04:22:23.055Z,0.00
2018-02-01T04:23:23.016Z,0.00
2018-02-01T04:24:22.968Z,0.00
2018-02-01T04:25:22.932Z,0.00
2018-02-01T04:26:22.890Z,0.00
2018-02-01T04:27:22.856Z,0.00
2018-02-01T04:28:22.802Z,0.00
2018-02-01T04:29:22.760Z,0.00
2018-02-01T04:30:22.723Z,0.00
2018-02-01T04:31:22.683Z,0.00
2018-02-01T04:32:22.648Z,0.00
2018-02-01T04:33:22.601Z,0.00
2018-02-01T04:34:22.557Z,0.00
2018-02-01T04:35:22.516Z,0.00
2018-02-01T04:36:22.474Z,0.00
2018-02-01T04:37:22.435Z,0.00
2018-02-01T04:38:22.397Z,0.00
2018-02-01T04:39:22.365Z,0.00
2018-02-01T04:40:22.317Z,0.00
2018-02-01T04:41:22.272Z,0.00
2018-02-01T04:42:22.234Z,0.00
2018-02-01T04:43:22.194Z,0.00
2018-02-01T04:44:22.154Z,0.00
2018-02-01T04:45:22.107Z,0.00
2018-02-01T04:46:22.064Z,0.00
2018-02-01T04:47:22.029Z,0.00
2018-02-01T04:48:21.981Z,0.00
2018-02-01T04:49:21.943Z,0.00
2018-02-01T04:50:21.899Z,0.00
2018-02-01T04:51:21.870Z,0.00
2018-02-01T04:52:21.820Z,0.00
2018-02-01T04:53:21.781Z,0.00
2018-02-01T04:54:21.742Z,0.00
2018-02-01T04:55:21.698Z,0.00
2018-02-01T04:56:21.653Z,0.00
2018-02-01T04:57:21.613Z,0.00
2018-02-01T04:58:21.593Z,0.00
2018-02-01T04:59:21.532Z,0.00
2018-02-01T05:00:21.497Z,0.00
2018-02-01T05:01:21.451Z,0.00
2018-02-01T05:02:21.407Z,0.00
2018-02-01T05:03:21.370Z,0.00
2018-02-01T05:04:21.325Z,0.00
2018-02-01T05:05:21.296Z,0.00
2018-02-01T05:06:21.243Z,0.00
2018-02-01T05:07:21.211Z,0.00
2018-02-01T05:08:21.161Z,0.00
2018-02-01T05:09:21.128Z,0.00
2018-02-01T05:10:21.080Z,0.00
2018-02-01T05:11:21.039Z,0.00
2018-02-01T05:12:21.013Z,0.00
2018-02-01T05:13:20.960Z,0.00
2018-02-01T05:14:20.917Z,0.00
2018-02-01T05:15:20.879Z,0.00
2018-02-01T05:16:20.837Z,0.00
2018-02-01T05:17:20.792Z,0.00
2018-02-01T05:18:20.765Z,0.00
2018-02-01T05:19:20.714Z,0.00
2018-02-01T05:20:20.682Z,0.00
2018-02-01T05:21:20.649Z,0.00
2018-02-01T05:22:20.592Z,0.00
2018-02-01T05:23:20.562Z,0.00
2018-02-01T05:24:20.505Z,0.00
2018-02-01T05:25:20.471Z,0.00
2018-02-01T05:26:20.432Z,0.00
2018-02-01T05:27:20.383Z,0.00
2018-02-01T05:28:20.347Z,0.00
2018-02-01T05:29:20.304Z,0.00
2018-02-01T05:30:20.270Z,0.00
2018-02-01T05:31:20.220Z,0.00
2018-02-01T05:32:20.181Z,0.00
2018-02-01T05:33:20.164Z,0.00
2018-02-01T05:34:20.099Z,0.00
2018-02-01T05:35:20.069Z,0.00
2018-02-01T05:36:20.020Z,0.00
2018-02-01T05:37:19.979Z,0.00
2018-02-01T05:38:19.938Z,0.00
2018-02-01T05:39:19.893Z,0.00
2018-02-01T05:40:19.859Z,0.00
2018-02-01T05:41:19.823Z,0.00
2018-02-01T05:42:19.774Z,0.00
2018-02-01T05:43:19.757Z,0.00
2018-02-01T05:44:19.702Z,0.00
2018-02-01T05:45:19.670Z,0.00
2018-02-01T05:46:19.632Z,0.00
2018-02-01T05:47:19.562Z,0.00
2018-02-01T05:48:19.538Z,0.00
2018-02-01T05:49:19.492Z,0.00
2018-02-01T05:50:19.443Z,0.00
2018-02-01T05:51:19.407Z,0.00
2018-02-01T05:52:19.360Z,0.00
2018-02-01T05:53:19.319Z,0.00
2018-02-01T05:54:19.280Z,0.00
2018-02-01T05:55:19.239Z,0.00
2018-02-01T05:56:19.203Z,0.00
2018-02-01T05:57:19.157Z,0.00
2018-02-01T05:58:19.120Z,0.00
2018-02-01T05:59:19.072Z,0.00
2018-02-01T06:00:19.032Z,0.00
2018-02-01T06:01:18.993Z,0.00
2018-02-01T06:02:18.961Z,0.00
2018-02-01T06:03:18.908Z,0.00
2018-02-01T06:04:18.868Z,0.00
2018-02-01T06:05:18.829Z,0.00
2018-02-01T06:06:18.783Z,0.00
2018-02-01T06:07:18.752Z,0.00
2018-02-01T06:08:18.703Z,0.00
2018-02-01T06:09:18.659Z,0.00
2018-02-01T06:10:18.621Z,0.00
2018-02-01T06:11:18.578Z,0.00
2018-02-01T06:12:18.539Z,0.00
2018-02-01T06:13:18.497Z,0.00
2018-02-01T06:14:18.460Z,0.00
2018-02-01T06:15:18.421Z,0.00
2018-02-01T06:16:18.382Z,4.00
2018-02-01T06:17:18.332Z,4.00
2018-02-01T06:18:18.292Z,4.00
2018-02-01T06:19:18.251Z,0.00
2018-02-01T06:20:18.215Z,4.00
2018-02-01T06:21:18.180Z,4.00
2018-02-01T06:22:18.128Z,8.00
2018-02-01T06:23:18.083Z,4.00
2018-02-01T06:24:18.041Z,8.00
2018-02-01T06:25:18.001Z,8.00
2018-02-01T06:26:17.969Z,12.00
2018-02-01T06:27:17.919Z,12.00
2018-02-01T06:28:17.884Z,16.00
2018-02-01T06:29:17.836Z,16.00
2018-02-01T06:30:17.794Z,20.00
2018-02-01T06:31:17.754Z,24.00
2018-02-01T06:32:17.716Z,28.00
2018-02-01T06:33:17.679Z,32.00
2018-02-01T06:34:17.640Z,40.00
2018-02-01T06:35:17.593Z,44.00
2018-02-01T06:36:17.594Z,52.00
2018-02-01T06:37:17.530Z,56.00
2018-02-01T06:38:17.466Z,68.00
2018-02-01T06:39:17.424Z,76.00
2018-02-01T06:40:17.380Z,84.00
2018-02-01T06:41:17.345Z,96.00
2018-02-01T06:42:17.296Z,104.00
2018-02-01T06:43:17.258Z,116.00
2018-02-01T06:44:17.233Z,128.00
2018-02-01T06:45:17.178Z,144.00
2018-02-01T06:46:17.137Z,160.00
2018-02-01T06:47:17.089Z,176.00
2018-02-01T06:48:17.050Z,196.00
2018-02-01T06:49:17.010Z,216.00
2018-02-01T06:50:16.971Z,236.00
2018-02-01T06:51:16.932Z,260.00
2018-02-01T06:52:16.886Z,284.00
2018-02-01T06:53:16.845Z,304.00
2018-02-01T06:54:16.805Z,328.00
2018-02-01T06:55:16.759Z,352.00
2018-02-01T06:56:16.719Z,376.00
2018-02-01T06:57:16.674Z,404.00
2018-02-01T06:58:16.633Z,432.00
2018-02-01T06:59:16.590Z,460.00
2018-02-01T07:00:16.554Z,496.00
2018-02-01T07:01:16.523Z,532.00
2018-02-01T07:02:16.468Z,572.00
2018-02-01T07:03:16.433Z,612.00
2018-02-01T07:04:16.387Z,656.00
2018-02-01T07:05:16.348Z,716.00
2018-02-01T07:06:16.309Z,772.00
2018-02-01T07:07:16.260Z,828.00
2018-02-01T07:08:16.219Z,884.00
2018-02-01T07:09:16.180Z,936.00
2018-02-01T07:10:16.136Z,988.00
2018-02-01T07:11:16.095Z,1032.00
2018-02-01T07:12:16.052Z,1080.00
2018-02-01T07:13:16.026Z,1112.00
2018-02-01T07:14:15.968Z,1120.00
2018-02-01T07:15:15.942Z,1120.00
2018-02-01T07:16:15.907Z,1124.00
2018-02-01T07:17:15.842Z,1136.00
2018-02-01T07:18:15.803Z,1152.00
2018-02-01T07:19:15.758Z,1172.00
2018-02-01T07:20:15.717Z,1192.00
2018-02-01T07:21:15.678Z,1216.00
2018-02-01T07:22:15.642Z,1240.00
2018-02-01T07:23:15.595Z,1256.00
2018-02-01T07:24:15.552Z,1280.00
2018-02-01T07:25:15.518Z,1300.00
2018-02-01T07:26:15.474Z,1324.00
2018-02-01T07:27:15.426Z,1352.00
2018-02-01T07:28:15.385Z,1384.00
2018-02-01T07:29:15.343Z,1412.00
2018-02-01T07:30:15.309Z,1456.00
2018-02-01T07:31:15.263Z,1508.00
2018-02-01T07:32:15.247Z,1544.00
2018-02-01T07:33:15.180Z,1588.00
2018-02-01T07:34:15.144Z,1640.00
2018-02-01T07:35:15.102Z,1700.00
2018-02-01T07:36:15.076Z,1792.00
2018-02-01T07:37:15.016Z,1824.00
2018-02-01T07:38:14.971Z,1860.00
2018-02-01T07:39:14.929Z,1868.00
2018-02-01T07:40:14.886Z,1880.00
2018-02-01T07:41:14.852Z,1924.00
2018-02-01T07:42:14.827Z,1976.00
2018-02-01T07:43:14.761Z,2016.00
2018-02-01T07:44:14.722Z,2072.00
2018-02-01T07:45:14.682Z,2144.00
2018-02-01T07:46:14.646Z,2256.00
2018-02-01T07:47:14.605Z,2384.00
2018-02-01T07:48:14.571Z,2512.00
2018-02-01T07:49:14.536Z,2580.00
2018-02-01T07:50:14.494Z,2616.00
2018-02-01T07:51:14.448Z,2640.00
2018-02-01T07:52:14.404Z,2644.00
2018-02-01T07:53:14.352Z,2656.00
2018-02-01T07:54:14.304Z,2652.00
2018-02-01T07:55:14.261Z,2644.00
2018-02-01T07:56:14.243Z,2668.00
2018-02-01T07:57:14.180Z,2724.00
2018-02-01T07:58:14.156Z,2804.00
2018-02-01T07:59:14.096Z,2880.00
2018-02-01T08:00:14.063Z,2940.00
2018-02-01T08:01:14.107Z,2932.00
2018-02-01T08:02:13.977Z,2980.00
2018-02-01T08:03:13.962Z,3044.00
2018-02-01T08:04:13.907Z,3136.00
2018-02-01T08:05:13.902Z,3208.00
2018-02-01T08:06:13.823Z,3232.00
2018-02-01T08:07:13.833Z,3352.00
2018-02-01T08:08:13.727Z,3420.00
2018-02-01T08:09:13.685Z,3556.00
2018-02-01T08:10:13.640Z,3596.00
2018-02-01T08:11:13.605Z,3756.00
2018-02-01T08:12:13.569Z,3924.00
2018-02-01T08:13:13.513Z,3908.00
2018-02-01T08:14:13.492Z,3828.00
2018-02-01T08:15:13.437Z,3860.00
2018-02-01T08:16:13.412Z,3912.00
2018-02-01T08:17:13.357Z,4068.00
2018-02-01T08:18:13.311Z,4000.00
2018-02-01T08:19:13.303Z,3948.00
2018-02-01T08:20:13.225Z,3968.00
2018-02-01T08:21:13.186Z,4240.00
2018-02-01T08:22:13.167Z,4676.00
2018-02-01T08:23:13.144Z,4744.00
2018-02-01T08:24:13.061Z,4704.00
2018-02-01T08:25:13.031Z,4708.00
2018-02-01T08:26:12.978Z,4488.00
2018-02-01T08:27:12.936Z,4344.00
2018-02-01T08:28:12.906Z,4264.00
2018-02-01T08:29:12.857Z,4420.00
2018-02-01T08:30:12.813Z,4956.00
2018-02-01T08:31:12.777Z,5364.00
2018-02-01T08:32:12.733Z,5464.00
2018-02-01T08:33:12.710Z,5428.00
2018-02-01T08:34:12.654Z,5304.00
2018-02-01T08:35:12.608Z,5276.00
2018-02-01T08:36:12.569Z,5236.00
2018-02-01T08:37:12.527Z,5504.00
2018-02-01T08:38:12.488Z,5360.00
2018-02-01T08:39:12.447Z,4496.00
2018-02-01T08:40:12.404Z,4452.00
2018-02-01T08:41:12.360Z,4488.00
2018-02-01T08:42:12.323Z,4580.00
2018-02-01T08:43:12.281Z,4740.00
2018-02-01T08:44:12.241Z,4776.00
2018-02-01T08:45:12.195Z,4588.00
2018-02-01T08:46:12.157Z,4524.00
2018-02-01T08:47:12.133Z,4716.00
2018-02-01T08:48:12.072Z,4732.00
2018-02-01T08:49:12.032Z,4744.00
2018-02-01T08:50:11.991Z,4584.00
2018-02-01T08:51:11.950Z,4376.00
2018-02-01T08:52:11.910Z,4256.00
2018-02-01T08:53:11.873Z,4332.00
2018-02-01T08:54:11.828Z,4616.00
2018-02-01T08:55:11.785Z,4520.00
2018-02-01T08:56:11.747Z,4532.00
2018-02-01T08:57:11.702Z,4424.00
2018-02-01T08:58:11.715Z,4364.00
2018-02-01T08:59:11.622Z,4380.00
2018-02-01T09:00:11.584Z,4520.00
2018-02-01T09:01:11.541Z,4456.00
2018-02-01T09:02:11.500Z,4484.00
2018-02-01T09:03:11.459Z,4616.00
2018-02-01T09:04:11.424Z,4632.00
2018-02-01T09:05:11.441Z,4612.00
2018-02-01T09:06:11.338Z,4916.00
2018-02-01T09:07:11.314Z,5612.00
2018-02-01T09:08:11.255Z,5332.00
2018-02-01T09:09:11.224Z,5460.00
2018-02-01T09:10:11.179Z,5488.00
2018-02-01T09:11:11.131Z,5512.00
2018-02-01T09:12:11.114Z,5684.00
2018-02-01T09:13:11.049Z,5756.00
2018-02-01T09:14:11.006Z,5428.00
2018-02-01T09:15:10.968Z,5484.00
2018-02-01T09:16:10.930Z,5276.00
2018-02-01T09:17:10.884Z,5244.00
2018-02-01T09:18:10.846Z,5444.00
2018-02-01T09:19:10.809Z,5664.00
2018-02-01T09:20:10.765Z,5728.00
2018-02-01T09:21:10.726Z,6020.00
2018-02-01T09:22:10.689Z,6168.00
2018-02-01T09:23:10.641Z,6496.00
2018-02-01T09:24:10.601Z,6992.00
2018-02-01T09:25:10.582Z,6784.00
2018-02-01T09:26:10.530Z,6920.00
2018-02-01T09:27:10.554Z,7080.00
2018-02-01T09:28:10.439Z,7536.00
2018-02-01T09:29:10.413Z,7752.00
2018-02-01T09:30:10.360Z,7600.00
2018-02-01T09:31:10.320Z,7872.00
2018-02-01T09:32:10.282Z,7364.00
2018-02-01T09:33:10.240Z,6920.00
2018-02-01T09:34:10.205Z,7512.00
2018-02-01T09:35:10.168Z,7012.00
2018-02-01T09:36:10.169Z,7052.00
2018-02-01T09:37:10.072Z,6792.00
2018-02-01T09:38:10.030Z,7368.00
2018-02-01T09:39:09.991Z,7408.00
2018-02-01T09:40:09.949Z,6996.00
2018-02-01T09:41:09.962Z,7040.00
2018-02-01T09:42:09.875Z,7300.00
2018-02-01T09:43:09.831Z,6712.00
2018-02-01T09:44:09.793Z,7304.00
2018-02-01T09:45:09.796Z,7448.00
2018-02-01T09:46:09.724Z,7516.00
2018-02-01T09:47:09.763Z,7108.00
2018-02-01T09:48:09.643Z,7420.00
2018-02-01T09:49:09.590Z,7708.00
2018-02-01T09:50:09.553Z,7932.00
2018-02-01T09:51:09.515Z,8028.00
2018-02-01T09:52:09.466Z,8008.00
2018-02-01T09:53:09.429Z,7956.00
2018-02-01T09:54:09.382Z,7916.00
2018-02-01T09:55:09.344Z,8068.00
2018-02-01T09:56:09.303Z,8132.00
2018-02-01T09:57:09.261Z,8216.00
2018-02-01T09:58:09.222Z,8260.00
2018-02-01T09:59:09.238Z,8048.00
2018-02-01T10:00:09.155Z,7128.00
2018-02-01T10:01:09.101Z,7184.00
2018-02-01T10:02:09.139Z,7364.00
2018-02-01T10:03:09.033Z,7240.00
2018-02-01T10:04:08.980Z,6800.00
2018-02-01T10:05:08.984Z,7084.00
2018-02-01T10:06:08.905Z,7256.00
2018-02-01T10:07:08.867Z,7860.00
2018-02-01T10:08:08.825Z,8020.00
2018-02-01T10:09:08.832Z,8048.00
2018-02-01T10:10:08.738Z,7768.00
2018-02-01T10:11:08.709Z,7892.00
2018-02-01T10:12:08.664Z,7876.00
2018-02-01T10:13:08.625Z,7832.00
2018-02-01T10:14:08.579Z,7040.00
2018-02-01T10:15:08.543Z,7400.00
2018-02-01T10:16:08.501Z,7508.00
2018-02-01T10:17:08.462Z,7540.00
2018-02-01T10:18:08.425Z,7888.00
2018-02-01T10:19:08.382Z,8044.00
2018-02-01T10:20:08.342Z,7832.00
2018-02-01T10:21:08.314Z,7592.00
2018-02-01T10:22:08.257Z,7716.00
2018-02-01T10:23:08.218Z,7316.00
2018-02-01T10:24:08.177Z,7812.00
2018-02-01T10:25:08.142Z,7964.00
2018-02-01T10:26:08.098Z,7816.00
2018-02-01T10:27:08.059Z,7912.00
2018-02-01T10:28:08.021Z,7492.00
2018-02-01T10:29:08.005Z,7028.00
2018-02-01T10:30:07.957Z,6956.00
2018-02-01T10:31:07.922Z,6648.00
2018-02-01T10:32:07.867Z,6608.00
2018-02-01T10:33:07.820Z,5872.00
2018-02-01T10:34:07.781Z,6072.00
2018-02-01T10:35:07.753Z,6452.00
2018-02-01T10:36:07.721Z,5880.00
2018-02-01T10:37:07.686Z,5620.00
2018-02-01T10:38:07.646Z,5940.00
2018-02-01T10:39:07.579Z,6120.00
2018-02-01T10:40:07.548Z,6716.00
2018-02-01T10:41:07.498Z,7140.00
2018-02-01T10:42:07.462Z,7004.00
2018-02-01T10:43:07.442Z,6968.00
2018-02-01T10:44:07.384Z,7032.00
2018-02-01T10:45:07.337Z,6892.00
2018-02-01T10:46:07.318Z,7188.00
2018-02-01T10:47:07.258Z,6388.00
2018-02-01T10:48:07.229Z,6860.00
2018-02-01T10:49:07.180Z,7104.00
2018-02-01T10:50:07.136Z,6284.00
2018-02-01T10:51:07.099Z,6300.00
2018-02-01T10:52:07.117Z,6532.00
2018-02-01T10:53:07.017Z,6412.00
2018-02-01T10:54:06.978Z,6324.00
2018-02-01T10:55:06.937Z,5852.00
2018-02-01T10:56:06.895Z,5804.00
2018-02-01T10:57:06.858Z,6028.00
2018-02-01T10:58:06.819Z,6208.00
2018-02-01T10:59:06.780Z,6064.00
2018-02-01T11:00:06.792Z,6116.00
2018-02-01T11:01:06.696Z,5556.00
2018-02-01T11:02:06.652Z,6024.00
2018-02-01T11:03:06.616Z,5932.00
2018-02-01T11:04:06.579Z,6160.00
2018-02-01T11:05:06.536Z,6348.00
2018-02-01T11:06:06.496Z,7132.00
2018-02-01T11:07:06.457Z,6784.00
2018-02-01T11:08:06.419Z,6184.00
2018-02-01T11:09:06.374Z,6276.00
2018-02-01T11:10:06.343Z,6228.00
2018-02-01T11:11:06.297Z,6488.00
2018-02-01T11:12:06.298Z,6096.00
2018-02-01T11:13:06.218Z,5780.00
2018-02-01T11:14:06.175Z,5716.00
2018-02-01T11:15:06.144Z,5480.00
2018-02-01T11:16:06.097Z,5528.00
2018-02-01T11:17:06.054Z,5716.00
2018-02-01T11:18:06.016Z,5628.00
2018-02-01T11:19:05.974Z,5604.00
2018-02-01T11:20:05.943Z,5640.00
2018-02-01T11:21:05.897Z,5772.00
2018-02-01T11:22:05.858Z,5924.00
2018-02-01T11:23:05.817Z,5976.00
2018-02-01T11:24:05.775Z,6136.00
2018-02-01T11:25:05.738Z,6248.00
2018-02-01T11:26:05.691Z,6392.00
2018-02-01T11:27:05.662Z,6704.00
2018-02-01T11:28:05.615Z,6804.00
2018-02-01T11:29:05.581Z,7060.00
2018-02-01T11:30:05.699Z,7232.00
2018-02-01T11:31:05.494Z,7332.00
2018-02-01T11:32:05.456Z,7360.00
2018-02-01T11:33:05.408Z,7320.00
2018-02-01T11:34:05.373Z,7312.00
2018-02-01T11:35:05.331Z,7204.00
2018-02-01T11:36:05.296Z,7180.00
2018-02-01T11:37:05.255Z,6924.00
2018-02-01T11:38:05.212Z,6856.00
2018-02-01T11:39:05.168Z,6724.00
2018-02-01T11:40:05.138Z,6568.00
2018-02-01T11:41:05.096Z,6424.00
2018-02-01T11:42:05.060Z,6332.00
2018-02-01T11:43:05.013Z,6508.00
2018-02-01T11:44:04.972Z,6452.00
2018-02-01T11:45:04.941Z,6484.00
2018-02-01T11:46:04.892Z,6756.00
2018-02-01T11:47:04.851Z,6752.00
2018-02-01T11:48:04.810Z,7400.00
2018-02-01T11:49:04.780Z,7808.00
2018-02-01T11:50:04.731Z,8460.00
2018-02-01T11:51:04.700Z,8336.00
2018-02-01T11:52:04.660Z,7924.00
2018-02-01T11:53:04.612Z,7272.00
2018-02-01T11:54:04.573Z,6472.00
2018-02-01T11:55:04.532Z,6004.00
2018-02-01T11:56:04.492Z,6120.00
2018-02-01T11:57:04.454Z,6416.00
2018-02-01T11:58:04.410Z,6236.00
2018-02-01T11:59:04.374Z,6592.00
2018-02-01T12:00:04.334Z,6696.00
2018-02-01T12:01:04.292Z,6936.00
2018-02-01T12:02:04.268Z,6776.00
2018-02-01T12:03:04.212Z,6684.00
2018-02-01T12:04:04.174Z,8040.00
2018-02-01T12:05:04.144Z,8152.00
2018-02-01T12:06:04.099Z,8144.00
2018-02-01T12:07:04.070Z,8324.00
2018-02-01T12:08:04.015Z,8296.00
2018-02-01T12:09:03.973Z,8352.00
2018-02-01T12:10:03.933Z,7804.00
2018-02-01T12:11:03.896Z,8108.00
2018-02-01T12:12:03.858Z,8108.00
2018-02-01T12:13:03.816Z,8088.00
2018-02-01T12:14:03.775Z,8012.00
2018-02-01T12:15:03.737Z,7972.00
2018-02-01T12:16:03.704Z,7944.00
2018-02-01T12:17:03.664Z,7876.00
2018-02-01T12:18:03.624Z,7848.00
2018-02-01T12:19:03.586Z,7812.00
2018-02-01T12:20:03.543Z,7732.00
2018-02-01T12:21:03.506Z,7656.00
2018-02-01T12:22:03.461Z,7736.00
2018-02-01T12:23:03.431Z,5340.00
2018-02-01T12:24:03.379Z,7860.00
2018-02-01T12:25:03.339Z,7848.00
2018-02-01T12:26:03.296Z,7820.00
2018-02-01T12:27:03.261Z,7844.00
2018-02-01T12:28:03.219Z,7912.00
2018-02-01T12:29:03.214Z,8008.00
2018-02-01T12:30:03.140Z,7984.00
2018-02-01T12:31:03.103Z,7948.00
2018-02-01T12:32:03.107Z,7856.00
2018-02-01T12:33:03.032Z,7848.00
2018-02-01T12:34:02.992Z,7116.00
2018-02-01T12:35:02.949Z,7336.00
2018-02-01T12:36:02.921Z,7828.00
2018-02-01T12:37:02.914Z,7892.00
2018-02-01T12:38:02.832Z,7528.00
2018-02-01T12:39:02.787Z,8096.00
2018-02-01T12:40:02.754Z,8000.00
2018-02-01T12:41:02.704Z,7888.00
2018-02-01T12:42:02.667Z,7784.00